Airfield :
LOGIN :

Register | Disclaimer

   EN    FR    IT 

 










Legend :    VFR   Marginal VFR   IFR   Intensive IFR   Very Intensive IFR
Visi :
Ceiling :
>= 8 km
>= 3000ft
5 to 8 km
1000 to 3000 ft
1500m to 5 km
500 to 1000 ft
800 to 1500m
200 to 500 ft
< 800m
< 200 ft
Symbols :   Thunderstorms  Fog  Heavy snow  Heavy precipitations  Wind > 20 kt
SIGMETs :     Misc.  Thunderstorms  Icing  Turbulence  Mountain Waves  Volcanic Ashes






- Airport Elevation : 38 ft
- IATA code : TRE


EGPU - Tiree

CURRENT METAR :
  • 060550Z AUTO 23025G35KT 200V270 9000 -RA FEW020/// SCT025/// BKN044/// 07/05 Q0997

EXPIRED METARs :
  • 060520Z AUTO 21023G35KT 9000 BKN041/// 08/05 Q0996 RERA
  • 060450Z AUTO 22026KT 180V240 8000 -RADZ FEW024/// BKN048/// 08/06 Q0996
  • 060420Z AUTO 21024KT 180V240 9999 BKN021/// 09/06 Q0995
  • 060350Z AUTO 21024KT 9999 BKN020/// BKN030/// 09/06 Q0995
  • 060320Z AUTO 22026G36KT 180V250 9999 BKN020/// 09/06 Q0994

Expired Forecast.



MET'MAP, your aeronautical weather chart ! - Copyright ORBIFLY December 2007 - Disclaimer

ORBIFLY MET'MAP TEAM :

Programming & Development : Alexandra Zaïnal
Concept & original design : Baudouin d'Aumeries
Assistance for programming : Marc-Olivier Méhu
Technical & hardware support : Manuel Goepfert

Contact : metmap@orbifly.com




SOURCES & CREDITS :

   NOAA